createdAt,value
2019-03-25T00:02:40.359Z,94.02
2019-03-25T00:12:32.572Z,94.68
2019-03-25T00:18:51.020Z,94.41
2019-03-25T00:25:09.646Z,94.12
2019-03-25T00:31:39.810Z,94.50
2019-03-25T00:37:58.086Z,95.02
2019-03-25T00:44:16.053Z,95.18
2019-03-25T00:50:33.877Z,94.37
2019-03-25T00:57:05.631Z,95.00
2019-03-25T01:03:23.583Z,94.19
2019-03-25T01:12:53.107Z,93.86
2019-03-25T01:19:10.791Z,93.67
2019-03-25T01:25:29.568Z,93.53
2019-03-25T01:31:59.964Z,93.85
2019-03-25T01:38:17.914Z,93.93
2019-03-25T01:44:35.804Z,94.02
2019-03-25T01:50:54.059Z,94.50
2019-03-25T01:57:24.355Z,94.80
2019-03-25T02:03:43.136Z,94.41
2019-03-25T02:13:23.401Z,94.52
2019-03-25T02:19:41.774Z,94.74
2019-03-25T02:26:00.205Z,94.56
2019-03-25T02:32:30.708Z,94.31
2019-03-25T02:38:49.154Z,94.42
2019-03-25T02:45:08.152Z,94.26
2019-03-25T02:51:29.930Z,94.23
2019-03-25T02:58:00.303Z,94.52
2019-03-25T03:04:19.508Z,94.92
2019-03-25T03:13:49.980Z,95.16
2019-03-25T03:20:09.327Z,96.40
2019-03-25T03:26:30.816Z,96.03
2019-03-25T03:33:01.309Z,95.81
2019-03-25T03:39:19.715Z,96.33
2019-03-25T03:45:30.398Z,95.94
2019-03-25T03:51:54.906Z,95.36
2019-03-25T03:58:29.633Z,95.11
2019-03-25T04:04:48.944Z,94.87
2019-03-25T04:14:33.132Z,95.29
2019-03-25T04:20:51.923Z,94.78
2019-03-25T04:27:14.381Z,95.52
2019-03-25T04:33:46.175Z,95.13
2019-03-25T04:40:18.780Z,95.43
2019-03-25T04:46:40.024Z,95.43
2019-03-25T04:52:58.074Z,95.64
2019-03-25T04:59:28.421Z,95.60
2019-03-25T05:05:47.629Z,95.88
2019-03-25T05:15:17.859Z,96.39
2019-03-25T05:21:36.370Z,96.11
2019-03-25T05:27:54.491Z,96.47
2019-03-25T05:34:24.764Z,96.52
2019-03-25T05:40:45.953Z,96.76
2019-03-25T05:47:04.519Z,97.00
2019-03-25T05:53:23.642Z,98.35
2019-03-25T05:59:55.117Z,98.61
2019-03-25T06:06:15.681Z,98.33
2019-03-25T06:15:46.071Z,96.11
2019-03-25T06:22:05.286Z,95.86
2019-03-25T06:28:24.379Z,96.13
2019-03-25T06:34:55.565Z,95.39
2019-03-25T06:41:14.820Z,94.73
2019-03-25T06:47:33.856Z,94.58
2019-03-25T06:53:52.620Z,94.51
2019-03-25T07:00:24.549Z,93.22
2019-03-25T07:06:44.380Z,90.62
2019-03-25T07:16:14.669Z,89.82
2019-03-25T07:22:33.671Z,90.64
2019-03-25T07:28:53.943Z,89.97
2019-03-25T07:35:24.952Z,89.78
2019-03-25T07:41:43.472Z,89.46
2019-03-25T07:48:04.068Z,89.52
2019-03-25T07:54:22.773Z,89.06
2019-03-25T08:00:54.113Z,89.61
2019-03-25T08:07:13.531Z,89.44
2019-03-25T08:16:44.423Z,87.62
2019-03-25T08:23:03.151Z,88.04
2019-03-25T08:29:21.952Z,86.43
2019-03-25T08:35:52.720Z,85.80
2019-03-25T08:42:11.374Z,84.18
2019-03-25T08:48:29.769Z,82.63
2019-03-25T08:54:48.756Z,81.52
2019-03-25T09:01:19.742Z,76.34
2019-03-25T09:07:39.006Z,74.50
2019-03-25T09:17:09.427Z,75.83
2019-03-25T09:23:28.760Z,75.28
2019-03-25T09:29:47.098Z,74.57
2019-03-25T09:36:06.666Z,74.12
2019-03-25T09:42:37.740Z,74.59
2019-03-25T09:48:59.141Z,76.64
2019-03-25T09:55:17.811Z,75.46
2019-03-25T10:01:36.361Z,74.85
2019-03-25T10:08:09.251Z,73.65
2019-03-25T10:18:15.579Z,64.30
2019-03-25T10:24:34.345Z,63.53
2019-03-25T10:30:53.055Z,62.03
2019-03-25T10:37:23.987Z,63.24
2019-03-25T10:43:42.660Z,60.27
2019-03-25T10:50:01.825Z,58.66
2019-03-25T10:55:44.793Z,60.50
2019-03-25T11:02:03.729Z,61.37
2019-03-25T11:08:34.924Z,62.27
2019-03-25T11:18:41.058Z,61.84
2019-03-25T11:25:00.368Z,62.07
2019-03-25T11:31:19.809Z,62.24
2019-03-25T11:37:38.794Z,62.65
2019-03-25T11:44:09.947Z,64.48
2019-03-25T11:50:28.953Z,67.05
2019-03-25T11:56:11.777Z,66.72
2019-03-25T12:02:30.343Z,66.51
2019-03-25T12:09:01.523Z,63.95
2019-03-25T12:19:08.462Z,73.32
2019-03-25T12:25:27.590Z,76.04
2019-03-25T12:31:46.571Z,73.32
2019-03-25T12:38:05.729Z,73.80
2019-03-25T12:44:35.872Z,73.24
2019-03-25T12:50:54.202Z,67.89
2019-03-25T12:56:36.516Z,60.64
2019-03-25T13:02:56.572Z,64.06
2019-03-25T13:09:26.734Z,66.42
2019-03-25T13:19:31.081Z,65.64
2019-03-25T13:25:48.578Z,82.12
2019-03-25T13:32:06.687Z,86.70
2019-03-25T13:38:24.225Z,87.11
2019-03-25T13:44:57.678Z,87.39
2019-03-25T13:51:15.886Z,84.53
2019-03-25T13:56:58.784Z,83.73
2019-03-25T14:03:17.142Z,80.88
2019-03-25T14:09:47.545Z,78.53
2019-03-25T14:19:52.491Z,68.54
2019-03-25T14:26:10.910Z,65.89
2019-03-25T14:32:17.200Z,64.55
2019-03-25T14:38:36.003Z,64.39
2019-03-25T14:45:06.706Z,67.41
2019-03-25T14:51:24.538Z,69.80
2019-03-25T14:57:42.685Z,69.86
2019-03-25T15:04:00.561Z,68.87
2019-03-25T15:10:30.699Z,67.34
2019-03-25T15:20:36.206Z,67.93
2019-03-25T15:26:54.204Z,66.04
2019-03-25T15:33:09.012Z,64.52
2019-03-25T15:39:26.934Z,63.83
2019-03-25T15:45:59.354Z,70.84
2019-03-25T15:52:17.222Z,75.64
2019-03-25T15:58:35.473Z,78.69
2019-03-25T16:04:53.491Z,77.87
2019-03-25T16:11:23.962Z,76.11
2019-03-25T16:21:28.766Z,72.42
2019-03-25T16:27:47.299Z,74.49
2019-03-25T16:33:42.092Z,73.63
2019-03-25T16:40:00.699Z,73.19
2019-03-25T16:46:30.792Z,74.10
2019-03-25T16:52:49.367Z,74.94
2019-03-25T16:59:07.959Z,75.71
2019-03-25T17:05:25.701Z,77.20
2019-03-25T17:11:55.912Z,79.18
2019-03-25T17:22:00.211Z,82.72
2019-03-25T17:28:17.802Z,83.84
2019-03-25T17:34:00.393Z,90.03
2019-03-25T17:40:17.913Z,92.41
2019-03-25T17:46:39.343Z,90.90
2019-03-25T17:53:09.840Z,93.14
2019-03-25T17:59:29.163Z,95.91
2019-03-25T18:05:46.917Z,98.23
2019-03-25T18:12:05.558Z,97.55
2019-03-25T18:22:22.854Z,97.58
2019-03-25T18:28:53.493Z,96.84
2019-03-25T18:35:19.791Z,96.54
2019-03-25T18:41:37.784Z,95.30
2019-03-25T18:48:08.041Z,95.88
2019-03-25T18:54:26.268Z,95.39
2019-03-25T19:00:44.781Z,95.62
2019-03-25T19:07:03.089Z,96.54
2019-03-25T19:13:33.224Z,96.67
2019-03-25T19:19:28.072Z,96.98
2019-03-25T19:25:34.418Z,95.93
2019-03-25T19:31:52.406Z,96.08
2019-03-25T19:38:13.157Z,96.29
2019-03-25T19:44:43.232Z,97.04
2019-03-25T19:51:01.113Z,98.72
2019-03-25T19:57:19.102Z,99.35
2019-03-25T20:03:49.468Z,98.42
2019-03-25T20:10:10.539Z,99.13
2019-03-25T20:16:28.695Z,99.68
2019-03-25T20:26:24.677Z,100.00
2019-03-25T20:32:42.842Z,100.00
2019-03-25T20:39:13.192Z,100.00
2019-03-25T20:45:31.734Z,100.00
2019-03-25T20:51:49.573Z,100.00
2019-03-25T20:58:07.984Z,100.00
2019-03-25T21:04:38.135Z,100.00
2019-03-25T21:11:08.404Z,100.00
2019-03-25T21:17:27.478Z,100.00
2019-03-25T21:27:34.212Z,100.00
2019-03-25T21:33:53.141Z,100.00
2019-03-25T21:40:24.569Z,100.00
2019-03-25T21:46:43.535Z,100.00
2019-03-25T21:53:02.050Z,97.45
2019-03-25T21:59:20.207Z,96.38
2019-03-25T22:05:50.230Z,93.80
2019-03-25T22:12:08.307Z,91.80
2019-03-25T22:18:26.382Z,91.33
2019-03-25T22:28:38.015Z,92.45
2019-03-25T22:34:55.870Z,92.07
2019-03-25T22:41:25.897Z,92.08
2019-03-25T22:47:44.371Z,91.21
2019-03-25T22:54:01.962Z,93.14
2019-03-25T23:00:24.395Z,91.59
2019-03-25T23:06:54.651Z,92.10
2019-03-25T23:13:12.436Z,91.96
2019-03-25T23:19:31.130Z,92.40
2019-03-25T23:29:36.956Z,92.18
2019-03-25T23:35:54.966Z,93.16
2019-03-25T23:42:27.476Z,92.79
2019-03-25T23:48:45.202Z,93.81
2019-03-25T23:54:50.741Z,92.99
